Time;durP1;ratioP1;P1;durP2;ratioP2;P2;SDS_P1;SDS_P2;PMS_P1;PMS_P2;Temp;Humidity;BMP_temperature;BMP_pressure;BME280_temperature;BME280_humidity;BME280_pressure;Samples;Min_cycle;Max_cycle;Signal;HPM_P1;HPM_P2
2024/03/16 00:02:01;;;;;;;;;;;22.80;52.30;;;;;;5080674;28;19909;-64
2024/03/16 00:04:26;;;;;;;;;;;22.80;52.30;;;;;;5082166;28;19904;-64
2024/03/16 00:06:52;;;;;;;;;;;22.80;52.30;;;;;;5082901;28;19948;-63
2024/03/16 00:09:18;;;;;;;;;;;22.80;52.30;;;;;;5081666;28;19916;-63
2024/03/16 00:11:44;;;;;;;;;;;22.80;52.30;;;;;;5082966;28;19946;-64
2024/03/16 00:14:09;;;;;;;;;;;22.80;52.30;;;;;;5080127;28;19908;-66
2024/03/16 00:16:35;;;;;;;;;;;22.80;52.30;;;;;;5081232;28;19962;-66
2024/03/16 00:19:01;;;;;;;;;;;22.80;52.30;;;;;;5083012;28;20011;-66
2024/03/16 00:21:26;;;;;;;;;;;22.80;52.40;;;;;;5080856;28;19907;-66
2024/03/16 00:23:53;;;;;;;;;;;22.80;52.30;;;;;;5063299;28;19919;-66
2024/03/16 00:26:18;;;;;;;;;;;22.80;52.30;;;;;;5064694;28;19915;-66
2024/03/16 00:28:44;;;;;;;;;;;22.80;52.30;;;;;;5079245;28;19912;-66
2024/03/16 00:31:09;;;;;;;;;;;22.80;52.30;;;;;;5078868;28;19908;-66
2024/03/16 00:33:35;;;;;;;;;;;22.80;52.30;;;;;;5081465;28;19908;-66
2024/03/16 00:36:00;;;;;;;;;;;22.70;52.30;;;;;;5082468;28;20376;-66
2024/03/16 00:38:26;;;;;;;;;;;22.70;52.30;;;;;;5081407;28;19987;-66
2024/03/16 00:40:56;;;;;;;;;;;22.80;52.30;;;;;;5062896;28;20007;-66
2024/03/16 00:43:22;;;;;;;;;;;22.70;52.30;;;;;;5064489;28;19966;-65
2024/03/16 00:45:48;;;;;;;;;;;22.70;52.30;;;;;;5078562;28;19914;-66
2024/03/16 00:48:14;;;;;;;;;;;22.70;52.30;;;;;;5081676;28;19923;-66
2024/03/16 00:50:39;;;;;;;;;;;22.70;52.30;;;;;;5079691;28;20361;-66
2024/03/16 00:53:05;;;;;;;;;;;22.70;52.30;;;;;;5081249;28;20360;-66
2024/03/16 00:55:31;;;;;;;;;;;22.70;52.30;;;;;;5080293;28;20466;-66
2024/03/16 00:57:56;;;;;;;;;;;22.70;52.30;;;;;;5082265;28;19908;-66
2024/03/16 01:00:22;;;;;;;;;;;22.70;52.30;;;;;;5080651;28;20381;-65
2024/03/16 01:02:48;;;;;;;;;;;22.70;52.30;;;;;;5083530;28;19956;-65
2024/03/16 01:05:13;;;;;;;;;;;22.60;52.30;;;;;;5082395;28;20225;-63
2024/03/16 01:07:39;;;;;;;;;;;22.70;52.30;;;;;;5083856;28;19927;-63
2024/03/16 01:10:05;;;;;;;;;;;22.60;52.30;;;;;;5081279;28;20303;-63
2024/03/16 01:12:30;;;;;;;;;;;22.60;52.30;;;;;;5081403;28;19908;-63
2024/03/16 01:14:57;;;;;;;;;;;22.60;52.30;;;;;;5080376;28;19954;-63
2024/03/16 01:17:22;;;;;;;;;;;22.60;52.30;;;;;;5079460;28;19957;-64
2024/03/16 01:19:48;;;;;;;;;;;22.60;52.30;;;;;;5077876;28;19991;-63
2024/03/16 01:22:13;;;;;;;;;;;22.60;52.30;;;;;;5078250;28;19916;-63
2024/03/16 01:24:39;;;;;;;;;;;22.60;52.30;;;;;;5080470;28;19911;-63
2024/03/16 01:27:05;;;;;;;;;;;22.60;52.30;;;;;;5080181;28;20286;-63
2024/03/16 01:29:30;;;;;;;;;;;22.60;52.30;;;;;;5079753;28;19907;-63
2024/03/16 01:31:56;;;;;;;;;;;22.60;52.30;;;;;;5078117;28;19904;-63
2024/03/16 01:34:21;;;;;;;;;;;22.50;52.20;;;;;;5079577;28;19903;-64
2024/03/16 01:36:47;;;;;;;;;;;22.50;52.20;;;;;;5079381;28;19908;-63
2024/03/16 01:39:13;;;;;;;;;;;22.50;52.20;;;;;;5078509;28;19920;-63
2024/03/16 01:41:38;;;;;;;;;;;22.50;52.30;;;;;;5079241;28;19913;-63
2024/03/16 01:44:13;;;;;;;;;;;22.50;52.20;;;;;;5080367;28;19914;-63
2024/03/16 01:46:41;;;;;;;;;;;22.50;52.30;;;;;;5079083;28;20394;-64
2024/03/16 01:49:10;;;;;;;;;;;22.50;52.30;;;;;;5080356;28;20374;-64
2024/03/16 01:51:36;;;;;;;;;;;22.50;52.30;;;;;;5081070;28;19905;-64
2024/03/16 01:54:02;;;;;;;;;;;22.50;52.20;;;;;;5078013;28;20376;-64
2024/03/16 01:56:27;;;;;;;;;;;22.50;52.20;;;;;;5079671;28;19944;-65
2024/03/16 01:58:53;;;;;;;;;;;22.50;52.20;;;;;;5079241;28;20030;-64
2024/03/16 02:01:18;;;;;;;;;;;22.40;52.20;;;;;;5077826;28;20352;-64
2024/03/16 02:03:46;;;;;;;;;;;22.50;52.30;;;;;;5080760;28;20324;-64
2024/03/16 02:06:12;;;;;;;;;;;22.40;52.20;;;;;;5080347;28;19942;-64
2024/03/16 02:08:38;;;;;;;;;;;22.40;52.20;;;;;;5079563;28;19908;-64
2024/03/16 02:11:03;;;;;;;;;;;22.40;52.20;;;;;;5078138;28;19927;-64
2024/03/16 02:13:29;;;;;;;;;;;22.40;52.20;;;;;;5080364;28;19904;-64
2024/03/16 02:15:55;;;;;;;;;;;22.40;52.20;;;;;;5076736;28;19928;-63
2024/03/16 02:18:20;;;;;;;;;;;22.40;52.20;;;;;;5080313;28;20026;-64
2024/03/16 02:20:46;;;;;;;;;;;22.40;52.30;;;;;;5080570;28;19919;-64
2024/03/16 02:23:11;;;;;;;;;;;22.40;52.20;;;;;;5078278;28;20031;-64
2024/03/16 02:25:36;;;;;;;;;;;22.40;52.20;;;;;;5077328;28;19938;-64
2024/03/16 02:28:02;;;;;;;;;;;22.40;52.20;;;;;;5080929;28;19920;-64
2024/03/16 02:30:28;;;;;;;;;;;22.40;52.20;;;;;;5081665;28;19904;-64
2024/03/16 02:32:54;;;;;;;;;;;22.40;52.30;;;;;;5078919;28;19909;-63
2024/03/16 02:35:19;;;;;;;;;;;22.40;52.30;;;;;;5076680;28;19960;-63
2024/03/16 02:37:45;;;;;;;;;;;22.40;52.30;;;;;;5078526;28;20343;-63
2024/03/16 02:40:11;;;;;;;;;;;22.40;52.30;;;;;;5077348;28;19919;-64
2024/03/16 02:42:37;;;;;;;;;;;22.30;52.20;;;;;;5076375;28;19912;-63
2024/03/16 02:45:03;;;;;;;;;;;22.40;52.30;;;;;;5078625;28;19916;-63
2024/03/16 02:47:29;;;;;;;;;;;22.30;52.20;;;;;;5077766;28;19904;-64
2024/03/16 02:49:54;;;;;;;;;;;22.30;52.30;;;;;;5079554;28;20318;-64
2024/03/16 02:52:20;;;;;;;;;;;22.30;52.20;;;;;;5079041;28;19914;-64
2024/03/16 02:54:45;;;;;;;;;;;22.30;52.30;;;;;;5080809;28;19904;-63
2024/03/16 02:57:11;;;;;;;;;;;22.30;52.30;;;;;;5079238;28;19926;-63
2024/03/16 02:59:36;;;;;;;;;;;22.30;52.30;;;;;;5077540;28;19915;-63
2024/03/16 03:02:02;;;;;;;;;;;22.30;52.30;;;;;;5076713;28;20556;-63
2024/03/16 03:04:28;;;;;;;;;;;22.30;52.30;;;;;;5092100;28;19947;-64
2024/03/16 03:06:54;;;;;;;;;;;22.30;52.30;;;;;;5080455;28;19912;-63
2024/03/16 03:09:20;;;;;;;;;;;22.30;52.30;;;;;;5079300;28;20750;-64
2024/03/16 03:11:45;;;;;;;;;;;22.30;52.30;;;;;;5078580;28;19944;-64
2024/03/16 03:14:11;;;;;;;;;;;22.30;52.30;;;;;;5078799;28;19908;-63
2024/03/16 03:16:36;;;;;;;;;;;22.30;52.30;;;;;;5076438;28;19960;-64
2024/03/16 03:19:02;;;;;;;;;;;22.30;52.30;;;;;;5079159;28;20381;-63
2024/03/16 03:21:29;;;;;;;;;;;22.30;52.30;;;;;;5077237;28;19924;-63
2024/03/16 03:23:54;;;;;;;;;;;22.20;52.20;;;;;;5078735;28;19923;-64
2024/03/16 03:26:20;;;;;;;;;;;22.20;52.20;;;;;;5078791;28;19904;-65
2024/03/16 03:28:45;;;;;;;;;;;22.30;52.20;;;;;;5077981;28;19907;-66
2024/03/16 03:31:11;;;;;;;;;;;22.20;52.20;;;;;;5076030;28;19908;-65
2024/03/16 03:33:36;;;;;;;;;;;22.30;52.20;;;;;;5079553;28;19904;-66
2024/03/16 03:36:03;;;;;;;;;;;22.20;52.20;;;;;;5093872;28;20123;-66
2024/03/16 03:38:30;;;;;;;;;;;22.20;52.20;;;;;;5079804;28;19927;-66
2024/03/16 03:40:55;;;;;;;;;;;22.20;52.20;;;;;;5078395;28;19919;-65
2024/03/16 03:43:24;;;;;;;;;;;22.20;52.20;;;;;;5079708;28;19912;-66
2024/03/16 03:45:50;;;;;;;;;;;22.20;52.20;;;;;;5079931;28;19916;-63
2024/03/16 03:50:51;;;;;;;;;;;22.20;52.20;;;;;;5077460;28;19904;-64
2024/03/16 03:53:17;;;;;;;;;;;22.20;52.20;;;;;;5079431;28;20356;-63
2024/03/16 03:55:43;;;;;;;;;;;22.20;52.20;;;;;;5076071;28;20322;-65
2024/03/16 03:58:08;;;;;;;;;;;22.20;52.20;;;;;;5077944;28;19912;-63
2024/03/16 04:00:34;;;;;;;;;;;22.20;52.20;;;;;;5079302;28;20038;-63
2024/03/16 04:02:59;;;;;;;;;;;22.20;52.30;;;;;;5076125;28;20419;-63
2024/03/16 04:05:26;;;;;;;;;;;22.10;52.20;;;;;;5080278;28;19967;-66
2024/03/16 04:07:52;;;;;;;;;;;22.10;52.20;;;;;;5077881;28;19924;-66
2024/03/16 04:10:18;;;;;;;;;;;22.10;52.20;;;;;;5068639;28;20035;-66
2024/03/16 04:12:44;;;;;;;;;;;22.10;52.20;;;;;;5081519;28;19904;-66
2024/03/16 04:15:10;;;;;;;;;;;22.10;52.20;;;;;;5080796;28;20426;-66
2024/03/16 04:17:35;;;;;;;;;;;22.10;52.20;;;;;;5096211;28;19909;-66
2024/03/16 04:20:01;;;;;;;;;;;22.10;52.20;;;;;;5081447;28;19962;-66
2024/03/16 04:22:26;;;;;;;;;;;22.10;52.20;;;;;;5081086;28;20003;-65
2024/03/16 04:24:52;;;;;;;;;;;22.10;52.20;;;;;;5065235;28;19904;-66
2024/03/16 04:27:17;;;;;;;;;;;22.10;52.20;;;;;;5083468;28;20372;-66
2024/03/16 04:29:42;;;;;;;;;;;22.10;52.20;;;;;;5080107;28;19909;-66
2024/03/16 04:32:09;;;;;;;;;;;22.10;52.20;;;;;;5095870;28;20466;-65
2024/03/16 04:34:36;;;;;;;;;;;22.10;52.20;;;;;;5078736;28;19912;-65
2024/03/16 04:37:02;;;;;;;;;;;22.10;52.20;;;;;;5081753;28;19908;-66
2024/03/16 04:39:27;;;;;;;;;;;22.10;52.20;;;;;;5081106;28;19908;-66
2024/03/16 04:41:53;;;;;;;;;;;22.10;52.20;;;;;;5081186;28;19908;-66
2024/03/16 04:44:18;;;;;;;;;;;22.10;52.80;;;;;;5083143;28;20335;-66
2024/03/16 04:46:44;;;;;;;;;;;22.10;52.20;;;;;;5081360;28;19908;-65
2024/03/16 04:49:09;;;;;;;;;;;22.10;52.30;;;;;;5084169;28;20435;-66
2024/03/16 04:51:35;;;;;;;;;;;22.10;52.20;;;;;;5083463;28;19958;-66
2024/03/16 04:54:01;;;;;;;;;;;22.10;52.20;;;;;;5082609;28;19954;-66
2024/03/16 04:56:27;;;;;;;;;;;22.10;52.30;;;;;;5081251;28;19905;-63
2024/03/16 04:58:52;;;;;;;;;;;22.00;52.20;;;;;;5081120;28;19908;-63
2024/03/16 05:01:18;;;;;;;;;;;22.00;52.20;;;;;;5081440;28;19973;-64
2024/03/16 05:03:43;;;;;;;;;;;22.10;52.30;;;;;;5080583;28;20198;-63
2024/03/16 05:06:09;;;;;;;;;;;22.00;52.20;;;;;;5081919;28;19915;-63
2024/03/16 05:08:34;;;;;;;;;;;22.00;52.20;;;;;;5081205;28;20007;-63
2024/03/16 05:11:00;;;;;;;;;;;22.00;52.20;;;;;;5062405;28;19904;-63
2024/03/16 05:13:28;;;;;;;;;;;22.00;52.20;;;;;;5080388;28;20333;-63
2024/03/16 05:15:54;;;;;;;;;;;22.00;52.20;;;;;;5079980;28;19915;-63
2024/03/16 05:18:19;;;;;;;;;;;22.00;52.20;;;;;;5077137;28;19908;-63
2024/03/16 05:20:46;;;;;;;;;;;22.00;52.20;;;;;;5080207;28;20020;-63
2024/03/16 05:23:12;;;;;;;;;;;22.00;52.20;;;;;;5081563;28;19908;-64
2024/03/16 05:25:37;;;;;;;;;;;22.00;52.30;;;;;;5080467;28;19908;-64
2024/03/16 05:28:03;;;;;;;;;;;22.00;52.30;;;;;;5082302;28;19998;-64
2024/03/16 05:30:29;;;;;;;;;;;22.00;52.20;;;;;;5080343;28;19915;-64
2024/03/16 05:32:55;;;;;;;;;;;21.90;52.20;;;;;;5077671;28;20324;-64
2024/03/16 05:35:26;;;;;;;;;;;22.00;52.30;;;;;;5081680;28;19955;-64
2024/03/16 05:37:51;;;;;;;;;;;21.90;52.20;;;;;;5081759;28;20344;-64
2024/03/16 05:40:17;;;;;;;;;;;21.90;52.20;;;;;;5080271;28;19908;-64
2024/03/16 05:42:43;;;;;;;;;;;21.90;52.30;;;;;;5082576;28;19915;-64
2024/03/16 05:45:08;;;;;;;;;;;21.90;52.30;;;;;;5079245;28;20391;-64
2024/03/16 05:47:34;;;;;;;;;;;21.90;52.30;;;;;;5079390;28;19999;-64
2024/03/16 05:49:59;;;;;;;;;;;21.90;52.30;;;;;;5077568;28;19994;-64
2024/03/16 05:52:25;;;;;;;;;;;21.90;52.30;;;;;;5077633;28;19911;-64
2024/03/16 05:54:51;;;;;;;;;;;21.90;52.30;;;;;;5081306;28;20394;-64
2024/03/16 05:57:16;;;;;;;;;;;21.90;52.30;;;;;;5081343;28;19944;-64
2024/03/16 05:59:42;;;;;;;;;;;21.90;52.30;;;;;;5080826;28;19914;-64
2024/03/16 06:02:08;;;;;;;;;;;21.90;52.30;;;;;;5080017;28;19958;-64
2024/03/16 06:04:33;;;;;;;;;;;21.90;52.30;;;;;;5082112;28;19912;-65
2024/03/16 06:06:59;;;;;;;;;;;21.90;52.80;;;;;;5078590;28;19912;-63
2024/03/16 06:09:24;;;;;;;;;;;21.90;52.30;;;;;;5079797;28;19904;-64
2024/03/16 06:11:50;;;;;;;;;;;21.90;52.30;;;;;;5081637;28;20306;-63
2024/03/16 06:14:15;;;;;;;;;;;21.90;52.30;;;;;;5080049;28;19909;-63
2024/03/16 06:16:41;;;;;;;;;;;21.90;52.30;;;;;;5081011;28;19915;-63
2024/03/16 06:19:06;;;;;;;;;;;21.90;52.30;;;;;;5076548;28;20273;-64
2024/03/16 06:21:32;;;;;;;;;;;21.90;52.30;;;;;;5078510;28;20035;-64
2024/03/16 06:23:58;;;;;;;;;;;21.90;52.30;;;;;;5080534;28;19927;-63
2024/03/16 06:26:24;;;;;;;;;;;21.80;52.20;;;;;;5078642;28;19912;-63
2024/03/16 06:29:04;;;;;;;;;;;21.90;52.30;;;;;;5076662;28;20280;-63
2024/03/16 06:31:31;;;;;;;;;;;21.90;52.30;;;;;;5081147;28;19909;-64
2024/03/16 06:33:58;;;;;;;;;;;21.80;52.30;;;;;;5075612;28;19966;-64
2024/03/16 06:36:23;;;;;;;;;;;21.80;52.20;;;;;;5080668;28;19979;-64
2024/03/16 06:38:49;;;;;;;;;;;21.90;52.30;;;;;;5081076;28;20360;-64
2024/03/16 06:41:14;;;;;;;;;;;21.80;52.30;;;;;;5076875;28;19918;-63
2024/03/16 06:43:40;;;;;;;;;;;21.80;52.30;;;;;;5077980;28;19923;-64
2024/03/16 06:46:07;;;;;;;;;;;21.80;52.30;;;;;;5079799;28;19908;-64
2024/03/16 06:48:33;;;;;;;;;;;21.80;52.30;;;;;;5076881;28;19907;-64
2024/03/16 06:50:58;;;;;;;;;;;21.80;52.30;;;;;;5075703;28;20387;-64
2024/03/16 06:53:24;;;;;;;;;;;21.80;52.30;;;;;;5079141;28;19951;-64
2024/03/16 06:55:55;;;;;;;;;;;21.80;52.30;;;;;;5077958;28;19970;-63
2024/03/16 06:58:24;;;;;;;;;;;21.80;52.30;;;;;;5079741;28;19916;-64
2024/03/16 07:00:50;;;;;;;;;;;21.80;52.30;;;;;;5079203;28;20573;-63
2024/03/16 07:03:15;;;;;;;;;;;21.80;52.30;;;;;;5077282;28;19912;-63
2024/03/16 07:05:41;;;;;;;;;;;21.80;52.30;;;;;;5079269;28;19926;-64
2024/03/16 07:08:12;;;;;;;;;;;21.80;52.30;;;;;;5079818;28;20003;-63
2024/03/16 07:10:38;;;;;;;;;;;21.80;52.30;;;;;;5080844;28;20041;-63
2024/03/16 07:13:03;;;;;;;;;;;21.80;52.30;;;;;;5079767;28;19989;-64
2024/03/16 07:15:31;;;;;;;;;;;21.80;52.30;;;;;;5075372;28;19904;-66
2024/03/16 07:17:57;;;;;;;;;;;21.80;52.40;;;;;;5078780;28;20356;-65
2024/03/16 07:20:22;;;;;;;;;;;21.80;52.40;;;;;;5073484;28;19912;-65
2024/03/16 07:22:48;;;;;;;;;;;21.80;52.40;;;;;;5077031;28;19915;-65
2024/03/16 07:25:14;;;;;;;;;;;21.80;52.40;;;;;;5080041;28;19957;-66
2024/03/16 07:27:40;;;;;;;;;;;21.80;52.40;;;;;;5076356;28;19943;-66
2024/03/16 07:30:06;;;;;;;;;;;21.80;52.40;;;;;;5076989;28;19943;-65
2024/03/16 07:32:32;;;;;;;;;;;21.80;52.40;;;;;;5078940;28;19911;-66
2024/03/16 07:34:57;;;;;;;;;;;21.80;52.40;;;;;;5075934;28;20364;-65
2024/03/16 07:37:23;;;;;;;;;;;21.80;52.40;;;;;;5079711;28;19947;-66
2024/03/16 07:39:49;;;;;;;;;;;21.80;52.40;;;;;;5079385;28;19942;-66
2024/03/16 07:42:14;;;;;;;;;;;21.80;52.40;;;;;;5078294;28;19912;-66
2024/03/16 07:44:40;;;;;;;;;;;21.80;52.40;;;;;;5062609;28;19904;-65
2024/03/16 07:47:06;;;;;;;;;;;21.80;52.40;;;;;;5078216;28;19911;-64
2024/03/16 07:49:31;;;;;;;;;;;21.80;52.40;;;;;;5081509;28;19908;-63
2024/03/16 07:51:57;;;;;;;;;;;21.70;52.30;;;;;;5084130;28;19912;-64
2024/03/16 07:54:23;;;;;;;;;;;21.70;52.30;;;;;;5084259;28;19912;-64
2024/03/16 07:56:48;;;;;;;;;;;21.70;52.30;;;;;;5082229;28;19952;-64
2024/03/16 07:59:14;;;;;;;;;;;21.70;52.30;;;;;;5081986;28;19935;-63
2024/03/16 08:01:40;;;;;;;;;;;21.70;52.30;;;;;;5081170;28;19908;-63
2024/03/16 08:04:05;;;;;;;;;;;21.70;52.30;;;;;;5080951;28;19908;-64
2024/03/16 08:06:31;;;;;;;;;;;21.70;52.30;;;;;;5063732;28;19931;-65
2024/03/16 08:08:56;;;;;;;;;;;21.70;52.30;;;;;;5081657;28;19903;-65
2024/03/16 08:11:22;;;;;;;;;;;21.70;52.30;;;;;;5080128;28;19915;-65
2024/03/16 08:13:47;;;;;;;;;;;21.70;52.30;;;;;;5080056;28;19938;-65
2024/03/16 08:16:13;;;;;;;;;;;21.70;52.30;;;;;;5079180;28;20403;-66
2024/03/16 08:18:38;;;;;;;;;;;21.70;52.30;;;;;;5079954;28;20280;-65
2024/03/16 08:21:04;;;;;;;;;;;21.70;52.30;;;;;;5096765;28;19916;-65
2024/03/16 08:23:29;;;;;;;;;;;21.70;52.20;;;;;;5082498;28;19986;-65
2024/03/16 08:25:58;;;;;;;;;;;21.70;52.20;;;;;;5082494;28;19915;-62
2024/03/16 08:28:23;;;;;;;;;;;21.70;52.20;;;;;;5080152;28;20261;-63
2024/03/16 08:30:49;;;;;;;;;;;21.70;52.20;;;;;;5097594;28;19912;-64
2024/03/16 08:33:14;;;;;;;;;;;21.70;52.20;;;;;;5081263;28;19915;-65
2024/03/16 08:35:40;;;;;;;;;;;21.70;52.20;;;;;;5079362;28;20561;-63
2024/03/16 08:38:05;;;;;;;;;;;21.70;52.20;;;;;;5080646;28;19948;-63
2024/03/16 08:40:31;;;;;;;;;;;21.60;52.10;;;;;;5083319;28;19912;-63
2024/03/16 08:42:57;;;;;;;;;;;21.70;52.20;;;;;;5082555;28;20271;-63
2024/03/16 08:45:23;;;;;;;;;;;21.70;52.20;;;;;;5083125;28;19915;-63
2024/03/16 08:47:49;;;;;;;;;;;21.70;52.10;;;;;;5081971;28;19914;-63
2024/03/16 08:50:14;;;;;;;;;;;21.70;52.10;;;;;;5081076;28;19987;-63
2024/03/16 08:52:40;;;;;;;;;;;21.60;52.10;;;;;;5084598;28;20276;-64
2024/03/16 08:55:05;;;;;;;;;;;21.70;52.10;;;;;;5083327;28;19907;-63
2024/03/16 08:57:31;;;;;;;;;;;21.70;52.10;;;;;;5078861;28;19908;-63
2024/03/16 08:59:57;;;;;;;;;;;21.70;52.10;;;;;;5081584;28;19908;-64
2024/03/16 09:02:24;;;;;;;;;;;21.60;52.10;;;;;;5079795;28;19908;-65
2024/03/16 09:04:51;;;;;;;;;;;21.60;52.10;;;;;;5080011;28;19938;-63
2024/03/16 09:07:17;;;;;;;;;;;21.60;52.10;;;;;;5082131;28;19962;-64
2024/03/16 09:09:42;;;;;;;;;;;21.60;52.10;;;;;;5080612;28;19904;-64
2024/03/16 09:12:09;;;;;;;;;;;21.60;52.10;;;;;;5079253;28;20030;-64
2024/03/16 09:14:35;;;;;;;;;;;21.60;52.10;;;;;;5080838;28;20360;-64
2024/03/16 09:17:01;;;;;;;;;;;21.60;52.20;;;;;;5080591;28;19915;-64
2024/03/16 09:19:27;;;;;;;;;;;21.60;52.20;;;;;;5077892;28;20418;-64
2024/03/16 09:21:52;;;;;;;;;;;21.60;52.20;;;;;;5081752;28;19912;-64
2024/03/16 09:24:18;;;;;;;;;;;21.60;52.30;;;;;;5079551;28;19911;-64
2024/03/16 09:26:44;;;;;;;;;;;21.60;52.30;;;;;;5082429;28;19912;-64
2024/03/16 09:29:09;;;;;;;;;;;21.60;52.30;;;;;;5080208;28;19911;-64
2024/03/16 09:31:35;;;;;;;;;;;21.60;52.30;;;;;;5080629;28;19930;-64
2024/03/16 09:34:01;;;;;;;;;;;21.60;52.30;;;;;;5079800;28;19904;-64
2024/03/16 09:36:28;;;;;;;;;;;21.60;52.40;;;;;;5078833;28;20369;-62
2024/03/16 09:38:53;;;;;;;;;;;21.60;52.40;;;;;;5078470;28;19919;-62
2024/03/16 09:41:19;;;;;;;;;;;21.60;52.50;;;;;;5079205;28;19957;-64
2024/03/16 09:43:45;;;;;;;;;;;21.60;52.40;;;;;;5080729;28;20340;-62
2024/03/16 09:46:11;;;;;;;;;;;21.60;52.50;;;;;;5080620;28;19908;-62
2024/03/16 09:48:38;;;;;;;;;;;21.60;52.50;;;;;;5081415;28;19935;-63
2024/03/16 09:51:04;;;;;;;;;;;21.60;52.50;;;;;;5079010;28;20352;-62
2024/03/16 09:53:33;;;;;;;;;;;21.60;52.60;;;;;;5076110;28;19911;-63
2024/03/16 09:56:00;;;;;;;;;;;21.60;52.60;;;;;;5081182;28;20427;-63
2024/03/16 09:58:29;;;;;;;;;;;21.60;52.70;;;;;;5080230;28;19915;-62
2024/03/16 10:00:54;;;;;;;;;;;21.60;52.70;;;;;;5079864;28;19913;-62
2024/03/16 10:03:21;;;;;;;;;;;21.60;52.70;;;;;;5079004;28;20264;-63
2024/03/16 10:05:47;;;;;;;;;;;21.60;52.70;;;;;;5079794;28;19959;-63
2024/03/16 10:08:20;;;;;;;;;;;21.60;52.80;;;;;;5082579;28;19967;-63
2024/03/16 10:10:48;;;;;;;;;;;21.60;52.80;;;;;;5080423;28;19908;-63
2024/03/16 10:13:15;;;;;;;;;;;21.60;52.90;;;;;;5079028;28;19916;-62
2024/03/16 10:15:41;;;;;;;;;;;21.60;53.00;;;;;;5080320;28;19908;-67
2024/03/16 10:18:16;;;;;;;;;;;21.60;53.00;;;;;;5080127;28;19998;-63
2024/03/16 10:20:42;;;;;;;;;;;21.60;53.10;;;;;;5078914;28;19931;-63
2024/03/16 10:23:20;;;;;;;;;;;21.60;53.20;;;;;;5078563;28;19909;-63
2024/03/16 10:25:48;;;;;;;;;;;21.60;53.20;;;;;;5080794;28;19915;-65
2024/03/16 10:28:15;;;;;;;;;;;21.60;53.40;;;;;;5080217;28;20664;-65
2024/03/16 10:30:48;;;;;;;;;;;21.60;53.30;;;;;;5061550;28;20291;-65
2024/03/16 10:33:14;;;;;;;;;;;21.60;53.50;;;;;;5061332;28;20042;-65
2024/03/16 10:35:39;;;;;;;;;;;21.60;53.40;;;;;;5078108;28;19995;-65
2024/03/16 10:38:10;;;;;;;;;;;21.60;53.50;;;;;;5081241;28;19904;-66
2024/03/16 10:40:38;;;;;;;;;;;21.60;53.60;;;;;;5078797;28;20416;-65
2024/03/16 10:43:04;;;;;;;;;;;21.60;53.70;;;;;;5079521;28;19950;-65
2024/03/16 10:45:32;;;;;;;;;;;21.60;53.80;;;;;;5061862;28;20435;-65
2024/03/16 10:48:01;;;;;;;;;;;21.60;53.80;;;;;;5079769;28;20308;-65
2024/03/16 10:50:29;;;;;;;;;;;21.60;53.70;;;;;;5077421;28;20310;-64
2024/03/16 10:52:55;;;;;;;;;;;21.60;53.60;;;;;;5081360;28;19908;-65
2024/03/16 10:55:23;;;;;;;;;;;21.60;53.60;;;;;;5078203;28;20324;-64
2024/03/16 10:57:49;;;;;;;;;;;21.60;53.50;;;;;;5080659;28;19909;-64
2024/03/16 11:00:26;;;;;;;;;;;21.60;53.40;;;;;;5076952;28;20329;-64
2024/03/16 11:02:55;;;;;;;;;;;21.60;53.40;;;;;;5078815;28;19916;-64
2024/03/16 11:05:35;;;;;;;;;;;21.60;53.40;;;;;;5076924;28;20035;-64
2024/03/16 11:08:21;;;;;;;;;;;21.60;53.30;;;;;;5079664;28;20349;-64
2024/03/16 11:10:49;;;;;;;;;;;21.60;53.30;;;;;;5079786;28;19910;-63
2024/03/16 11:13:16;;;;;;;;;;;21.60;53.30;;;;;;5079989;28;19958;-64
2024/03/16 11:15:42;;;;;;;;;;;21.60;53.20;;;;;;5075956;28;19916;-62
2024/03/16 11:18:16;;;;;;;;;;;21.60;53.20;;;;;;5077912;28;19908;-62
2024/03/16 11:20:43;;;;;;;;;;;21.60;53.20;;;;;;5075509;28;20037;-63
2024/03/16 11:23:35;;;;;;;;;;;21.60;53.20;;;;;;5078553;28;19913;-63
2024/03/16 11:26:19;;;;;;;;;;;21.60;53.20;;;;;;5073925;28;19908;-63
2024/03/16 11:28:48;;;;;;;;;;;21.60;53.10;;;;;;5076309;28;19908;-62
2024/03/16 11:31:39;;;;;;;;;;;21.60;53.10;;;;;;5079970;28;19912;-62
2024/03/16 11:34:13;;;;;;;;;;;21.60;53.10;;;;;;5078679;28;19951;-64
2024/03/16 11:36:57;;;;;;;;;;;21.60;53.10;;;;;;5077474;28;19919;-64
2024/03/16 11:39:27;;;;;;;;;;;21.60;53.10;;;;;;5079920;28;20014;-64
2024/03/16 11:41:58;;;;;;;;;;;21.60;53.10;;;;;;5078462;28;19916;-63
2024/03/16 11:44:24;;;;;;;;;;;21.60;53.10;;;;;;5079722;28;20389;-64
2024/03/16 11:46:49;;;;;;;;;;;21.60;53.10;;;;;;5078583;28;19908;-64
2024/03/16 11:49:16;;;;;;;;;;;21.60;53.10;;;;;;5079472;28;19928;-63
2024/03/16 11:51:43;;;;;;;;;;;21.60;53.10;;;;;;5077733;28;19908;-63
2024/03/16 11:54:08;;;;;;;;;;;21.60;53.10;;;;;;5078368;28;19914;-64
2024/03/16 11:56:34;;;;;;;;;;;21.60;53.10;;;;;;5077842;28;19911;-65
2024/03/16 11:59:08;;;;;;;;;;;21.60;53.20;;;;;;5078356;28;19915;-65
2024/03/16 12:01:38;;;;;;;;;;;21.60;53.20;;;;;;5076028;28;19912;-65
2024/03/16 12:04:04;;;;;;;;;;;21.60;53.20;;;;;;5078067;28;19908;-66
2024/03/16 12:06:32;;;;;;;;;;;21.60;53.30;;;;;;5078254;28;19912;-65
2024/03/16 12:08:57;;;;;;;;;;;21.60;53.30;;;;;;5062080;28;19930;-65
2024/03/16 12:11:23;;;;;;;;;;;21.60;53.40;;;;;;5080485;28;19915;-65
2024/03/16 12:13:51;;;;;;;;;;;21.60;53.30;;;;;;5077923;28;20284;-65
2024/03/16 12:16:17;;;;;;;;;;;21.60;53.30;;;;;;5093216;28;19996;-65
2024/03/16 12:18:43;;;;;;;;;;;21.60;53.30;;;;;;5077052;28;19912;-65
2024/03/16 12:21:09;;;;;;;;;;;21.70;53.40;;;;;;5073245;28;19916;-65
2024/03/16 12:23:38;;;;;;;;;;;21.70;53.40;;;;;;5076937;28;19908;-65
2024/03/16 12:26:04;;;;;;;;;;;21.60;53.30;;;;;;5077175;28;19919;-63
2024/03/16 12:28:30;;;;;;;;;;;21.60;53.30;;;;;;5074921;28;19908;-63
2024/03/16 12:30:58;;;;;;;;;;;21.60;53.30;;;;;;5074856;28;19962;-64
2024/03/16 12:33:24;;;;;;;;;;;21.60;53.20;;;;;;5079854;28;19908;-63
2024/03/16 12:35:50;;;;;;;;;;;21.70;53.20;;;;;;5080288;28;19955;-64
2024/03/16 12:38:15;;;;;;;;;;;21.70;53.20;;;;;;5080551;28;19966;-64
2024/03/16 12:40:42;;;;;;;;;;;21.70;53.20;;;;;;5081172;28;19967;-64
2024/03/16 12:43:08;;;;;;;;;;;21.70;53.20;;;;;;5080818;28;19911;-64
2024/03/16 12:45:34;;;;;;;;;;;21.60;53.10;;;;;;5081230;28;19976;-63
2024/03/16 12:48:00;;;;;;;;;;;21.70;53.20;;;;;;5080208;28;20010;-64
2024/03/16 12:50:26;;;;;;;;;;;21.70;53.20;;;;;;5080198;28;19916;-64
2024/03/16 12:52:51;;;;;;;;;;;21.70;53.20;;;;;;5082134;28;19961;-64
2024/03/16 12:55:17;;;;;;;;;;;21.70;53.20;;;;;;5082441;28;19915;-64
2024/03/16 12:57:46;;;;;;;;;;;21.70;53.10;;;;;;5080902;28;20409;-63
2024/03/16 13:00:12;;;;;;;;;;;21.70;53.10;;;;;;5079098;28;20326;-64
2024/03/16 13:02:37;;;;;;;;;;;21.70;53.10;;;;;;5082459;28;19904;-64
2024/03/16 13:05:10;;;;;;;;;;;21.70;53.20;;;;;;5081936;28;19904;-64
2024/03/16 13:07:36;;;;;;;;;;;21.70;53.10;;;;;;5080505;28;19912;-64
2024/03/16 13:10:01;;;;;;;;;;;21.70;53.10;;;;;;5083324;28;19904;-64
2024/03/16 13:12:27;;;;;;;;;;;21.70;53.10;;;;;;5080798;28;19931;-64
2024/03/16 13:14:53;;;;;;;;;;;21.70;53.60;;;;;;5080146;28;19905;-63
2024/03/16 13:17:18;;;;;;;;;;;21.70;53.10;;;;;;5095644;28;19919;-63
2024/03/16 13:19:44;;;;;;;;;;;21.70;53.10;;;;;;5082510;28;19920;-64
2024/03/16 13:22:11;;;;;;;;;;;21.70;53.10;;;;;;5079817;28;20537;-63
2024/03/16 13:24:36;;;;;;;;;;;21.70;53.10;;;;;;5080948;28;20375;-63
2024/03/16 13:27:03;;;;;;;;;;;21.70;53.10;;;;;;5081208;28;19904;-64
2024/03/16 13:29:29;;;;;;;;;;;21.70;53.10;;;;;;5080113;28;20356;-64
2024/03/16 13:31:55;;;;;;;;;;;21.70;53.10;;;;;;5081428;28;19908;-64
2024/03/16 13:34:21;;;;;;;;;;;21.70;53.10;;;;;;5079738;28;20363;-64
2024/03/16 13:36:46;;;;;;;;;;;21.70;53.10;;;;;;5079479;28;19970;-64
2024/03/16 13:39:13;;;;;;;;;;;21.70;53.10;;;;;;5078668;28;20376;-63
2024/03/16 13:41:39;;;;;;;;;;;21.70;53.10;;;;;;5064989;28;19912;-64
2024/03/16 13:44:04;;;;;;;;;;;21.70;53.10;;;;;;5080490;28;19911;-63
2024/03/16 13:46:30;;;;;;;;;;;21.70;53.10;;;;;;5081208;28;19943;-63
2024/03/16 13:48:57;;;;;;;;;;;21.70;53.10;;;;;;5079681;28;19908;-62
2024/03/16 13:51:26;;;;;;;;;;;21.70;53.10;;;;;;5079447;28;19913;-64
2024/03/16 13:53:55;;;;;;;;;;;21.70;53.10;;;;;;5080506;28;19928;-63
2024/03/16 13:56:20;;;;;;;;;;;21.70;53.10;;;;;;5080807;28;19909;-63
2024/03/16 13:58:46;;;;;;;;;;;21.70;53.10;;;;;;5080688;28;20344;-63
2024/03/16 14:01:11;;;;;;;;;;;21.70;53.10;;;;;;5082734;28;19972;-64
2024/03/16 14:03:37;;;;;;;;;;;21.70;53.10;;;;;;5080234;28;19912;-63
2024/03/16 14:06:04;;;;;;;;;;;21.70;53.10;;;;;;5077376;28;19911;-64
2024/03/16 14:08:30;;;;;;;;;;;21.70;53.10;;;;;;5078195;28;20364;-63
2024/03/16 14:10:56;;;;;;;;;;;21.70;53.10;;;;;;5079107;28;19908;-64
2024/03/16 14:13:21;;;;;;;;;;;21.70;53.10;;;;;;5081571;28;19915;-64
2024/03/16 14:15:48;;;;;;;;;;;21.80;53.20;;;;;;5079991;28;20307;-66